createdAt,value
2023-05-25T00:00:31.501Z,94933.22
2023-05-25T00:02:59.501Z,94930.25
2023-05-25T00:05:27.777Z,94933.28
2023-05-25T00:07:55.553Z,94945.69
2023-05-25T00:10:24.293Z,94948.34
2023-05-25T00:12:51.975Z,94944.41
2023-05-25T00:15:19.148Z,94937.94
2023-05-25T00:17:49.035Z,94947.13
2023-05-25T00:20:16.371Z,94939.63
2023-05-25T00:22:47.646Z,94947.13
2023-05-25T00:25:14.680Z,94946.66
2023-05-25T00:27:41.626Z,94946.16
2023-05-25T00:30:09.088Z,94948.84
2023-05-25T00:32:36.768Z,94891.22
2023-05-25T00:35:04.162Z,94944.59
2023-05-25T00:37:31.476Z,94944.19
2023-05-25T00:39:58.585Z,94944.13
2023-05-25T00:42:28.162Z,94951.22
2023-05-25T00:44:55.254Z,94945.59
2023-05-25T00:47:22.693Z,94953.41
2023-05-25T00:49:50.928Z,94953.16
2023-05-25T00:52:18.444Z,94950.78
2023-05-25T00:54:47.887Z,94956.41
2023-05-25T00:57:15.046Z,94951.81
2023-05-25T00:59:46.581Z,94954.53
2023-05-25T01:02:17.072Z,94960.94
2023-05-25T01:05:00.609Z,94962.81
2023-05-25T01:07:33.975Z,94968.19
2023-05-25T01:10:05.351Z,94973.28
2023-05-25T01:12:40.700Z,94975.13
2023-05-25T01:15:09.201Z,94958.78
2023-05-25T01:17:39.279Z,94968.69
2023-05-25T01:20:11.648Z,94961.47
2023-05-25T01:22:51.443Z,94963.88
2023-05-25T01:25:30.233Z,94954.75
2023-05-25T01:28:06.848Z,94951.84
2023-05-25T01:30:38.133Z,94954.22
2023-05-25T01:33:05.685Z,94931.97
2023-05-25T01:35:33.998Z,94943.78
2023-05-25T01:38:01.299Z,94940.56
2023-05-25T01:40:28.464Z,94945.41
2023-05-25T01:42:55.606Z,94945.66
2023-05-25T01:45:23.128Z,94936.00
2023-05-25T01:48:23.862Z,94916.41
2023-05-25T01:50:59.511Z,94929.84
2023-05-25T01:53:52.574Z,94931.16
2023-05-25T01:56:21.629Z,94933.84
2023-05-25T01:58:50.920Z,94915.88
2023-05-25T02:01:18.787Z,94930.34
2023-05-25T02:03:49.232Z,94928.22
2023-05-25T02:06:16.886Z,94938.41
2023-05-25T02:08:44.357Z,94936.53
2023-05-25T02:11:13.430Z,94956.41
2023-05-25T02:13:40.841Z,94942.44
2023-05-25T02:16:08.463Z,94952.13
2023-05-25T02:18:35.918Z,94951.00
2023-05-25T02:21:05.187Z,94951.84
2023-05-25T02:23:32.201Z,94951.84
2023-05-25T02:25:59.313Z,94954.50
2023-05-25T02:28:26.600Z,94960.41
2023-05-25T02:30:54.810Z,94963.91
2023-05-25T02:33:21.942Z,94960.69
2023-05-25T02:35:50.071Z,94968.16
2023-05-25T02:38:17.089Z,94967.38
2023-05-25T02:40:46.024Z,94974.06
2023-05-25T02:43:13.457Z,94980.50
2023-05-25T02:45:40.715Z,94985.34
2023-05-25T02:48:07.780Z,94990.19
2023-05-25T02:50:35.472Z,94994.22
2023-05-25T02:53:06.246Z,94996.84
2023-05-25T02:55:33.460Z,94988.78
2023-05-25T02:58:00.831Z,94986.41
2023-05-25T03:00:46.936Z,94994.97
2023-05-25T03:03:14.789Z,94994.75
2023-05-25T03:05:42.090Z,94997.72
2023-05-25T03:08:09.295Z,94993.44
2023-05-25T03:10:36.414Z,94999.03
2023-05-25T03:13:03.753Z,94984.03
2023-05-25T03:15:30.859Z,94996.38
2023-05-25T03:18:01.315Z,94998.25
2023-05-25T03:20:33.062Z,94988.88
2023-05-25T03:23:00.352Z,94999.38
2023-05-25T03:25:27.307Z,94998.81
2023-05-25T03:27:54.942Z,95006.31
2023-05-25T03:30:22.810Z,95004.19
2023-05-25T03:32:49.861Z,95005.56
2023-05-25T03:35:16.934Z,94998.31
2023-05-25T03:37:43.891Z,95008.75
2023-05-25T03:40:11.904Z,95006.84
2023-05-25T03:42:39.230Z,95006.31
2023-05-25T03:45:09.175Z,95008.72
2023-05-25T03:47:37.093Z,95010.06
2023-05-25T03:50:07.085Z,94999.06
2023-05-25T03:52:34.173Z,94989.91
2023-05-25T03:55:04.622Z,95006.78
2023-05-25T03:57:31.939Z,95012.13
2023-05-25T03:59:59.571Z,95007.59
2023-05-25T04:02:26.646Z,95021.56
2023-05-25T04:04:57.133Z,95020.75
2023-05-25T04:07:27.445Z,95019.41
2023-05-25T04:09:54.443Z,95027.41
2023-05-25T04:12:22.275Z,95032.38
2023-05-25T04:14:49.280Z,95029.31
2023-05-25T04:17:18.998Z,95033.63
2023-05-25T04:19:45.979Z,95028.41
2023-05-25T04:22:12.920Z,95031.88
2023-05-25T04:24:41.181Z,95023.31
2023-05-25T04:27:08.796Z,95030.88
2023-05-25T04:29:38.316Z,95033.78
2023-05-25T04:32:23.906Z,95038.56
2023-05-25T04:35:09.876Z,95050.38
2023-05-25T04:37:43.903Z,95049.00
2023-05-25T04:40:12.048Z,95050.84
2023-05-25T04:42:39.958Z,95052.56
2023-05-25T04:45:11.317Z,95054.88
2023-05-25T04:47:41.227Z,95052.66
2023-05-25T04:50:11.938Z,95057.50
2023-05-25T04:52:39.200Z,95048.38
2023-05-25T04:55:06.713Z,95035.72
2023-05-25T04:57:38.054Z,95037.19
2023-05-25T05:00:06.372Z,95034.34
2023-05-25T05:02:34.606Z,95030.47
2023-05-25T05:05:01.751Z,95024.78
2023-05-25T05:07:31.778Z,95037.91
2023-05-25T05:09:58.779Z,95032.66
2023-05-25T05:12:26.456Z,95037.34
2023-05-25T05:14:56.387Z,95032.06
2023-05-25T05:17:24.078Z,95024.88
2023-05-25T05:19:51.858Z,95041.75
2023-05-25T05:22:18.978Z,95037.97
2023-05-25T05:24:46.053Z,95039.19
2023-05-25T05:27:19.680Z,95043.56
2023-05-25T05:29:53.223Z,95042.84
2023-05-25T05:32:20.660Z,95049.56
2023-05-25T05:34:47.922Z,95048.66
2023-05-25T05:37:31.069Z,95050.56
2023-05-25T05:39:58.110Z,95051.38
2023-05-25T05:42:25.117Z,95058.06
2023-05-25T05:44:52.095Z,95044.41
2023-05-25T05:47:19.422Z,95056.97
2023-05-25T05:49:47.475Z,95056.53
2023-05-25T05:52:14.454Z,95057.84
2023-05-25T05:54:41.357Z,95062.91
2023-05-25T05:57:11.896Z,95057.22
2023-05-25T05:59:39.133Z,95063.13
2023-05-25T06:02:07.461Z,95063.94
2023-05-25T06:04:34.602Z,95050.41
2023-05-25T06:07:01.567Z,95058.44
2023-05-25T06:09:28.750Z,95054.22
2023-05-25T06:11:59.812Z,95055.06
2023-05-25T06:14:28.755Z,95057.81
2023-05-25T06:16:58.987Z,95062.13
2023-05-25T06:19:26.229Z,95061.47
2023-05-25T06:21:53.142Z,95058.50
2023-05-25T06:24:21.924Z,95045.34
2023-05-25T06:26:50.038Z,95063.56
2023-05-25T06:29:17.920Z,95066.75
2023-05-25T06:31:45.131Z,95061.00
2023-05-25T06:34:12.733Z,95058.28
2023-05-25T06:36:41.633Z,95051.63
2023-05-25T06:39:10.229Z,95050.16
2023-05-25T06:41:39.177Z,95053.69
2023-05-25T06:44:07.473Z,95062.09
2023-05-25T06:46:42.019Z,95063.50
2023-05-25T06:49:09.739Z,95057.88
2023-05-25T06:51:37.269Z,95066.91
2023-05-25T06:54:04.315Z,95065.25
2023-05-25T06:56:31.466Z,95069.88
2023-05-25T06:58:58.917Z,95065.59
2023-05-25T07:01:26.588Z,95063.53
2023-05-25T07:03:53.538Z,95063.94
2023-05-25T07:06:20.838Z,95056.38
2023-05-25T07:08:47.721Z,95052.97
2023-05-25T07:11:14.689Z,95052.84
2023-05-25T07:13:41.900Z,95050.25
2023-05-25T07:16:09.202Z,95048.13
2023-05-25T07:18:39.742Z,95039.94
2023-05-25T07:21:10.150Z,95044.09
2023-05-25T07:23:37.991Z,95049.09
2023-05-25T07:26:06.007Z,95046.69
2023-05-25T07:28:33.722Z,95033.41
2023-05-25T07:31:01.507Z,95050.97
2023-05-25T07:33:28.969Z,95048.75
2023-05-25T07:35:56.011Z,95046.06
2023-05-25T07:38:22.880Z,95050.19
2023-05-25T07:40:50.118Z,95056.53
2023-05-25T07:43:17.048Z,95062.03
2023-05-25T07:45:44.261Z,95059.00
2023-05-25T07:48:11.369Z,95055.84
2023-05-25T07:50:38.615Z,95047.66
2023-05-25T07:53:05.540Z,95063.97
2023-05-25T07:55:32.569Z,95060.91
2023-05-25T07:57:59.629Z,95064.28
2023-05-25T08:00:26.686Z,95060.47
2023-05-25T08:02:53.735Z,95076.72
2023-05-25T08:05:20.710Z,95077.56
2023-05-25T08:07:47.722Z,95086.59
2023-05-25T08:10:14.812Z,95093.81
2023-05-25T08:12:47.870Z,95091.69
2023-05-25T08:15:17.429Z,95094.31
2023-05-25T08:17:44.897Z,95112.00
2023-05-25T08:20:12.698Z,95114.50
2023-05-25T08:22:39.737Z,95120.34
2023-05-25T08:25:08.166Z,95134.28
2023-05-25T08:27:36.385Z,95135.38
2023-05-25T08:30:06.160Z,95147.94
2023-05-25T08:32:33.540Z,95145.06
2023-05-25T08:35:02.034Z,95146.16
2023-05-25T08:37:35.769Z,95146.28
2023-05-25T08:40:03.108Z,95138.38
2023-05-25T08:42:33.236Z,95144.28
2023-05-25T08:45:00.253Z,95140.50
2023-05-25T08:47:32.148Z,95138.78
2023-05-25T08:50:01.859Z,95145.72
2023-05-25T08:52:34.293Z,95153.59
2023-05-25T08:55:06.449Z,95155.25
2023-05-25T08:57:33.542Z,95158.44
2023-05-25T09:00:12.283Z,95159.56
2023-05-25T09:02:42.293Z,95168.66
2023-05-25T09:05:09.660Z,95163.88
2023-05-25T09:07:36.740Z,95170.69
2023-05-25T09:10:04.973Z,95165.72
2023-05-25T09:12:32.229Z,95174.88
2023-05-25T09:14:59.531Z,95176.59
2023-05-25T09:17:27.436Z,95178.44
2023-05-25T09:19:55.043Z,95176.34
2023-05-25T09:22:22.400Z,95171.63
2023-05-25T09:24:49.444Z,95167.38
2023-05-25T09:27:19.349Z,95169.38
2023-05-25T09:29:50.788Z,95155.97
2023-05-25T09:32:19.084Z,95171.09
2023-05-25T09:34:47.304Z,95155.84
2023-05-25T09:37:19.415Z,95162.00
2023-05-25T09:39:48.102Z,95152.66
2023-05-25T09:42:15.199Z,95150.59
2023-05-25T09:44:43.200Z,95146.16
2023-05-25T09:47:10.255Z,95147.84
2023-05-25T09:49:37.386Z,95149.63
2023-05-25T09:52:04.621Z,95144.88
2023-05-25T09:54:31.632Z,95147.31
2023-05-25T09:57:05.260Z,95121.81
2023-05-25T09:59:32.649Z,95139.69
2023-05-25T10:01:59.776Z,95138.38
2023-05-25T10:04:27.070Z,95137.78
2023-05-25T10:06:56.828Z,95122.34
2023-05-25T10:09:27.195Z,95135.28
2023-05-25T10:11:56.218Z,95133.78
2023-05-25T10:14:29.348Z,95121.44
2023-05-25T10:17:04.569Z,95123.22
2023-05-25T10:19:43.109Z,95120.69
2023-05-25T10:22:24.163Z,95118.09
2023-05-25T10:24:55.091Z,95112.38
2023-05-25T10:27:27.826Z,95111.31
2023-05-25T10:30:01.874Z,95107.94
2023-05-25T10:32:34.828Z,95101.88
2023-05-25T10:35:03.413Z,95108.47
2023-05-25T10:37:31.750Z,95096.19
2023-05-25T10:40:00.426Z,95092.13
2023-05-25T10:42:30.833Z,95090.13
2023-05-25T10:44:58.405Z,95061.75
2023-05-25T10:47:25.914Z,95071.94
2023-05-25T10:50:02.049Z,95069.09
2023-05-25T10:52:33.280Z,95073.47
2023-05-25T10:55:02.163Z,95045.72
2023-05-25T10:57:32.724Z,95064.16
2023-05-25T11:00:08.316Z,95056.03
2023-05-25T11:02:50.420Z,95051.00
2023-05-25T11:05:26.955Z,95060.66
2023-05-25T11:07:57.547Z,95031.84
2023-05-25T11:10:49.279Z,95049.66
2023-05-25T11:13:31.451Z,95052.56
2023-05-25T11:16:17.811Z,95056.34
2023-05-25T11:18:59.030Z,95056.78
2023-05-25T11:21:30.357Z,95057.31
2023-05-25T11:24:11.239Z,95034.97
2023-05-25T11:26:53.075Z,95050.63
2023-05-25T11:29:22.037Z,95048.22
2023-05-25T11:31:56.300Z,95048.22
2023-05-25T11:34:26.872Z,95050.13
2023-05-25T11:36:55.695Z,95031.31
2023-05-25T11:39:23.587Z,95047.25
2023-05-25T11:42:02.191Z,95049.56
2023-05-25T11:44:31.627Z,95052.44
2023-05-25T11:47:01.810Z,95057.75
2023-05-25T11:49:29.148Z,95055.84
2023-05-25T11:52:00.191Z,95049.66
2023-05-25T11:54:29.101Z,95056.97
2023-05-25T11:56:59.431Z,95052.84
2023-05-25T11:59:29.816Z,95044.50
2023-05-25T12:02:01.190Z,95040.75
2023-05-25T12:04:34.019Z,95038.19
2023-05-25T12:07:06.071Z,95043.44
2023-05-25T12:09:33.430Z,95038.50
2023-05-25T12:12:03.486Z,95040.88
2023-05-25T12:14:30.637Z,95021.44
2023-05-25T12:16:58.022Z,95040.97
2023-05-25T12:19:25.287Z,95029.25
2023-05-25T12:21:52.685Z,95024.63
2023-05-25T12:24:19.918Z,95025.97
2023-05-25T12:26:48.242Z,95008.72
2023-05-25T12:29:15.268Z,95012.91
2023-05-25T12:31:42.439Z,95010.41
2023-05-25T12:34:17.923Z,95006.75
2023-05-25T12:36:52.731Z,94990.59
2023-05-25T12:39:34.655Z,95002.03
2023-05-25T12:42:02.591Z,94986.19
2023-05-25T12:44:37.375Z,94994.63
2023-05-25T12:47:23.347Z,94989.09
2023-05-25T12:49:52.998Z,94980.31
2023-05-25T12:52:33.382Z,94984.91
2023-05-25T12:55:19.715Z,94967.41
2023-05-25T12:57:47.327Z,94961.41
2023-05-25T13:00:14.443Z,94965.25
2023-05-25T13:02:47.766Z,94955.31
2023-05-25T13:05:30.529Z,94958.06
2023-05-25T13:07:58.367Z,94951.34
2023-05-25T13:10:26.178Z,94945.88
2023-05-25T13:12:55.591Z,94934.84
2023-05-25T13:15:22.547Z,94937.28
2023-05-25T13:17:51.608Z,94938.53
2023-05-25T13:20:20.273Z,94935.66
2023-05-25T13:22:49.768Z,94932.59
2023-05-25T13:25:17.031Z,94939.19
2023-05-25T13:27:45.767Z,94937.88
2023-05-25T13:30:13.317Z,94926.78
2023-05-25T13:32:40.576Z,94931.88
2023-05-25T13:35:08.083Z,94922.84
2023-05-25T13:37:35.073Z,94933.72
2023-05-25T13:40:01.996Z,94928.22
2023-05-25T13:42:32.371Z,94926.44
2023-05-25T13:44:59.344Z,94935.41
2023-05-25T13:47:26.413Z,94926.97
2023-05-25T13:49:53.557Z,94918.00
2023-05-25T13:52:20.488Z,94933.28
2023-05-25T13:54:47.437Z,94940.34
2023-05-25T13:57:14.588Z,94931.63
2023-05-25T13:59:41.509Z,94924.06
2023-05-25T14:02:08.611Z,94935.38
2023-05-25T14:04:35.654Z,94933.44
2023-05-25T14:07:02.794Z,94918.63
2023-05-25T14:09:29.827Z,94922.53
2023-05-25T14:11:57.148Z,94925.53
2023-05-25T14:14:32.113Z,94918.81
2023-05-25T14:17:01.438Z,94928.31
2023-05-25T14:19:28.940Z,94928.50
2023-05-25T14:22:11.790Z,94924.31
2023-05-25T14:24:40.144Z,94916.41
2023-05-25T14:27:07.419Z,94910.41
2023-05-25T14:29:34.594Z,94890.31
2023-05-25T14:32:01.901Z,94904.81
2023-05-25T14:34:29.579Z,94908.88
2023-05-25T14:36:56.819Z,94909.84
2023-05-25T14:39:23.756Z,94901.44
2023-05-25T14:41:50.974Z,94887.88
2023-05-25T14:44:17.902Z,94899.06
2023-05-25T14:46:45.060Z,94898.22
2023-05-25T14:49:13.566Z,94901.53
2023-05-25T14:51:40.544Z,94884.47
2023-05-25T14:54:08.009Z,94893.03
2023-05-25T14:56:35.176Z,94896.56
2023-05-25T14:59:02.445Z,94889.25
2023-05-25T15:01:29.593Z,94890.50
2023-05-25T15:03:57.003Z,94885.19
2023-05-25T15:06:24.453Z,94879.75
2023-05-25T15:08:51.689Z,94869.56
2023-05-25T15:11:18.978Z,94855.81
2023-05-25T15:13:46.604Z,94873.00
2023-05-25T15:16:14.907Z,94881.22
2023-05-25T15:18:42.175Z,94886.81
2023-05-25T15:21:09.623Z,94873.00
2023-05-25T15:23:37.109Z,94879.28
2023-05-25T15:26:04.851Z,94884.94
2023-05-25T15:28:31.958Z,94897.72
2023-05-25T15:31:01.729Z,94894.41
2023-05-25T15:33:47.874Z,94897.59
2023-05-25T15:36:17.921Z,94895.16
2023-05-25T15:38:49.060Z,94893.38
2023-05-25T15:41:17.387Z,94913.47
2023-05-25T15:43:58.150Z,94916.50
2023-05-25T15:46:26.048Z,94906.09
2023-05-25T15:48:54.259Z,94917.47
2023-05-25T15:51:22.152Z,94918.38
2023-05-25T15:53:49.067Z,94898.69
2023-05-25T15:56:16.134Z,94904.78
2023-05-25T15:58:47.107Z,94896.25
2023-05-25T16:01:14.404Z,94902.09
2023-05-25T16:03:43.154Z,94913.78
2023-05-25T16:06:11.157Z,94901.19
2023-05-25T16:08:38.458Z,94903.28
2023-05-25T16:11:05.773Z,94917.59
2023-05-25T16:13:32.692Z,94915.22
2023-05-25T16:15:59.658Z,94907.84
2023-05-25T16:18:26.850Z,94916.44
2023-05-25T16:20:55.978Z,94924.56
2023-05-25T16:23:24.225Z,94936.41
2023-05-25T16:25:51.258Z,94937.63
2023-05-25T16:28:18.247Z,94941.63
2023-05-25T16:30:45.352Z,94952.75
2023-05-25T16:33:12.365Z,94963.81
2023-05-25T16:35:39.467Z,94965.06
2023-05-25T16:38:06.334Z,94978.31
2023-05-25T16:40:33.663Z,94983.44
2023-05-25T16:43:00.869Z,94987.72
2023-05-25T16:45:28.209Z,94964.09
2023-05-25T16:47:55.258Z,94989.13
2023-05-25T16:50:22.331Z,95000.44
2023-05-25T16:52:49.340Z,94999.13
2023-05-25T16:55:16.626Z,95001.47
2023-05-25T16:57:43.652Z,94998.25
2023-05-25T17:00:11.576Z,95012.19
2023-05-25T17:02:38.648Z,95010.16
2023-05-25T17:05:06.927Z,95009.25
2023-05-25T17:07:34.754Z,95016.16
2023-05-25T17:10:02.071Z,95015.56
2023-05-25T17:12:32.170Z,95023.69
2023-05-25T17:14:59.180Z,95019.97
2023-05-25T17:17:28.046Z,95002.41
2023-05-25T17:19:55.627Z,95008.75
2023-05-25T17:22:23.089Z,95006.09
2023-05-25T17:24:50.216Z,95010.81
2023-05-25T17:27:17.317Z,95002.16
2023-05-25T17:29:44.298Z,95017.03
2023-05-25T17:32:11.478Z,95016.31
2023-05-25T17:34:38.515Z,95020.03
2023-05-25T17:37:05.616Z,95028.00
2023-05-25T17:39:32.539Z,95015.59
2023-05-25T17:41:59.582Z,95005.59
2023-05-25T17:44:26.996Z,95009.31
2023-05-25T17:46:53.973Z,95013.78
2023-05-25T17:49:20.973Z,95012.31
2023-05-25T17:51:48.034Z,95009.69
2023-05-25T17:54:18.425Z,95013.94
2023-05-25T17:56:46.501Z,95012.84
2023-05-25T17:59:13.474Z,95003.69
2023-05-25T18:01:41.893Z,95015.13
2023-05-25T18:04:09.138Z,95023.19
2023-05-25T18:06:37.117Z,95027.91
2023-05-25T18:09:04.376Z,94933.38
2023-05-25T18:11:33.643Z,95026.41
2023-05-25T18:14:00.736Z,95030.00
2023-05-25T18:16:27.759Z,95046.91
2023-05-25T18:18:54.789Z,95046.38
2023-05-25T18:21:21.778Z,95064.25
2023-05-25T18:23:48.851Z,95071.19
2023-05-25T18:26:15.979Z,95067.41
2023-05-25T18:28:43.026Z,95075.53
2023-05-25T18:31:09.982Z,95073.88
2023-05-25T18:33:37.244Z,95066.00
2023-05-25T18:36:04.313Z,95082.72
2023-05-25T18:38:31.392Z,95091.88
2023-05-25T18:40:58.378Z,95092.59
2023-05-25T18:43:26.158Z,95091.25
2023-05-25T18:45:53.263Z,95100.97
2023-05-25T18:48:20.380Z,95096.28
2023-05-25T18:50:47.380Z,95100.84
2023-05-25T18:53:14.350Z,95116.03
2023-05-25T18:55:41.261Z,95115.94
2023-05-25T18:58:08.329Z,95137.19
2023-05-25T19:00:35.357Z,95148.63
2023-05-25T19:03:02.341Z,95153.25
2023-05-25T19:05:29.445Z,95160.53
2023-05-25T19:07:59.543Z,95149.50
2023-05-25T19:10:27.570Z,95175.63
2023-05-25T19:12:55.072Z,95187.47
2023-05-25T19:15:22.191Z,95195.09
2023-05-25T19:17:49.235Z,95205.66
2023-05-25T19:20:16.790Z,95197.34
2023-05-25T19:22:44.187Z,95206.81
2023-05-25T19:25:11.307Z,95223.97
2023-05-25T19:27:38.415Z,95222.38
2023-05-25T19:30:05.951Z,95223.50
2023-05-25T19:32:33.627Z,95235.00
2023-05-25T19:35:00.576Z,95230.75
2023-05-25T19:37:27.610Z,95244.47
2023-05-25T19:39:54.694Z,95225.06
2023-05-25T19:42:21.745Z,95230.97
2023-05-25T19:44:48.788Z,95224.25
2023-05-25T19:47:16.001Z,95233.94
2023-05-25T19:49:43.326Z,95233.13
2023-05-25T19:52:10.293Z,95212.44
2023-05-25T19:54:39.492Z,95232.59
2023-05-25T19:57:07.440Z,95226.13
2023-05-25T19:59:34.540Z,95223.16
2023-05-25T20:02:01.806Z,95209.50
2023-05-25T20:04:28.864Z,95202.22
2023-05-25T20:06:55.958Z,95196.28
2023-05-25T20:09:30.598Z,95195.47
2023-05-25T20:11:58.956Z,95184.69
2023-05-25T20:14:26.563Z,95169.09
2023-05-25T20:16:55.819Z,95164.00
2023-05-25T20:19:23.434Z,95144.91
2023-05-25T20:21:51.019Z,95135.22
2023-05-25T20:24:18.227Z,95118.31
2023-05-25T20:26:45.665Z,95130.13
2023-05-25T20:29:12.648Z,95120.97
2023-05-25T20:31:40.547Z,95118.78
2023-05-25T20:34:07.737Z,95120.13
2023-05-25T20:36:34.817Z,95116.06
2023-05-25T20:39:03.254Z,95120.66
2023-05-25T20:41:30.687Z,95122.53
2023-05-25T20:43:57.943Z,95112.59
2023-05-25T20:46:26.168Z,95103.97
2023-05-25T20:48:53.614Z,95092.41
2023-05-25T20:51:21.974Z,95102.13
2023-05-25T20:53:49.038Z,95102.44
2023-05-25T20:56:16.199Z,95106.72
2023-05-25T20:58:43.243Z,95100.59
2023-05-25T21:01:10.329Z,95107.03
2023-05-25T21:03:37.350Z,95108.09
2023-05-25T21:06:04.589Z,95095.47
2023-05-25T21:08:32.101Z,95095.47
2023-05-25T21:10:59.266Z,95087.94
2023-05-25T21:13:26.290Z,95086.28
2023-05-25T21:15:53.344Z,95082.28
2023-05-25T21:18:20.539Z,95076.13
2023-05-25T21:20:47.489Z,95080.19
2023-05-25T21:23:14.877Z,95080.72
2023-05-25T21:25:41.762Z,95076.41
2023-05-25T21:28:10.393Z,95079.09
2023-05-25T21:30:37.287Z,95087.72
2023-05-25T21:33:04.356Z,95085.03
2023-05-25T21:35:31.476Z,95083.16
2023-05-25T21:37:58.464Z,95077.25
2023-05-25T21:40:25.489Z,95032.34
2023-05-25T21:42:53.466Z,95087.72
2023-05-25T21:45:21.297Z,95080.47
2023-05-25T21:47:48.432Z,95067.84
2023-05-25T21:50:15.874Z,95072.16
2023-05-25T21:52:43.017Z,95070.00
2023-05-25T21:55:10.198Z,95076.16
2023-05-25T21:57:37.672Z,95069.44
2023-05-25T22:00:06.571Z,95068.41
2023-05-25T22:02:41.033Z,95064.09
2023-05-25T22:05:08.108Z,95040.47
2023-05-25T22:07:35.030Z,95044.72
2023-05-25T22:10:02.126Z,95058.94
2023-05-25T22:12:30.803Z,95035.84
2023-05-25T22:14:57.817Z,95056.78
2023-05-25T22:17:24.862Z,95049.56
2023-05-25T22:20:03.232Z,95049.53
2023-05-25T22:22:34.203Z,95052.44
2023-05-25T22:25:01.314Z,95048.38
2023-05-25T22:27:30.529Z,95043.53
2023-05-25T22:29:57.432Z,95043.56
2023-05-25T22:32:24.501Z,95043.34
2023-05-25T22:34:51.465Z,95043.63
2023-05-25T22:37:18.898Z,95050.88
2023-05-25T22:39:45.828Z,95050.91
2023-05-25T22:42:12.880Z,95041.47
2023-05-25T22:44:39.862Z,95050.06
2023-05-25T22:47:07.080Z,95052.22
2023-05-25T22:49:41.265Z,95047.66
2023-05-25T22:52:10.507Z,95044.97
2023-05-25T22:54:37.494Z,95047.06
2023-05-25T22:57:04.712Z,95037.16
2023-05-25T22:59:31.611Z,95052.47
2023-05-25T23:01:58.805Z,95057.81
2023-05-25T23:04:25.740Z,95050.59
2023-05-25T23:06:52.766Z,95040.94
2023-05-25T23:09:19.847Z,95046.53
2023-05-25T23:11:46.928Z,95053.81
2023-05-25T23:14:13.938Z,95046.53
2023-05-25T23:16:41.692Z,95056.47
2023-05-25T23:19:08.906Z,95052.69
2023-05-25T23:21:35.858Z,95055.06
2023-05-25T23:24:02.875Z,95055.38
2023-05-25T23:26:29.794Z,95050.53
2023-05-25T23:28:56.733Z,95033.88
2023-05-25T23:31:23.914Z,95041.97
2023-05-25T23:33:51.009Z,95043.31
2023-05-25T23:36:18.080Z,95041.66
2023-05-25T23:38:45.844Z,95050.22
2023-05-25T23:41:12.919Z,95058.28
2023-05-25T23:43:39.809Z,95061.47
2023-05-25T23:46:07.349Z,95057.44
2023-05-25T23:48:34.466Z,95051.53
2023-05-25T23:51:01.496Z,95052.56
2023-05-25T23:53:28.516Z,95031.81
2023-05-25T23:55:55.592Z,95052.25
2023-05-25T23:58:22.933Z,95047.50
